Time;durP1;ratioP1;P1;durP2;ratioP2;P2;SDS_P1;SDS_P2;PMS_P1;PMS_P2;Temp;Humidity;BMP_temperature;BMP_pressure;BME280_temperature;BME280_humidity;BME280_pressure;Samples;Min_cycle;Max_cycle;Signal;HPM_P1;HPM_P2
2022/12/23 00:00:19;;;;;;;22.63;7.28;;;8.90;99.90;;;;;;5068581;28;20059;-79
2022/12/23 00:02:45;;;;;;;18.10;6.72;;;8.90;99.90;;;;;;5076755;28;20449;-79
2022/12/23 00:05:11;;;;;;;15.25;7.10;;;8.90;99.90;;;;;;5078132;28;20470;-80
2022/12/23 00:07:37;;;;;;;10.88;6.25;;;8.80;99.90;;;;;;5071377;28;20373;-79
2022/12/23 00:10:02;;;;;;;18.20;6.00;;;8.80;99.90;;;;;;5073983;28;20028;-79
2022/12/23 00:15:13;;;;;;;10.73;5.18;;;8.80;99.90;;;;;;5066395;28;20332;-79
2022/12/23 00:17:43;;;;;;;12.18;4.72;;;8.80;99.90;;;;;;5067505;28;20024;-80
2022/12/23 00:20:11;;;;;;;12.13;4.47;;;8.80;99.90;;;;;;5072800;28;20061;-79
2022/12/23 00:25:39;;;;;;;9.60;4.00;;;8.80;99.90;;;;;;5073520;28;20031;-80
2022/12/23 00:28:12;;;;;;;4.20;3.30;;;8.80;99.90;;;;;;5073430;28;20032;-79
2022/12/23 00:30:50;;;;;;;4.63;3.10;;;8.80;99.90;;;;;;5067837;28;20024;-80
2022/12/23 00:33:17;;;;;;;5.75;2.30;;;8.90;99.90;;;;;;5078554;28;20027;-80
2022/12/23 00:35:43;;;;;;;5.32;2.28;;;8.90;99.90;;;;;;5077597;28;20016;-78
2022/12/23 00:38:09;;;;;;;2.63;2.08;;;8.90;99.90;;;;;;5077353;28;20029;-79
2022/12/23 00:43:19;;;;;;;5.80;2.30;;;9.00;99.90;;;;;;5075895;28;20035;-80
2022/12/23 00:45:45;;;;;;;4.00;1.90;;;9.00;99.90;;;;;;5072307;28;20017;-79
2022/12/23 00:50:55;;;;;;;7.65;3.15;;;9.00;99.90;;;;;;5070003;28;20035;-79
2022/12/23 00:53:22;;;;;;;5.35;1.85;;;9.00;99.90;;;;;;5071979;28;20012;-80
2022/12/23 00:55:47;;;;;;;2.42;1.75;;;9.00;99.90;;;;;;5067390;28;20472;-79
2022/12/23 00:58:17;;;;;;;5.03;2.10;;;9.00;99.90;;;;;;5071997;28;20379;-79
2022/12/23 01:06:12;;;;;;;3.78;1.95;;;9.00;99.90;;;;;;5070682;28;20575;-79
2022/12/23 01:08:37;;;;;;;3.45;1.75;;;9.10;99.90;;;;;;5075656;28;20029;-79
2022/12/23 01:11:05;;;;;;;6.07;2.13;;;9.10;99.90;;;;;;5076406;28;20028;-79
2022/12/23 01:13:31;;;;;;;4.38;1.83;;;9.10;99.90;;;;;;5060932;28;20381;-79
2022/12/23 01:16:08;;;;;;;2.60;1.65;;;9.20;99.90;;;;;;5081780;28;20012;-79
2022/12/23 01:18:35;;;;;;;3.47;1.77;;;9.20;99.90;;;;;;5069247;28;20472;-78
2022/12/23 01:21:04;;;;;;;3.70;2.10;;;9.20;99.90;;;;;;5079968;28;20051;-78
2022/12/23 01:23:29;;;;;;;3.25;1.48;;;9.20;99.90;;;;;;5072742;28;20022;-79
2022/12/23 01:25:59;;;;;;;3.55;1.70;;;9.20;99.90;;;;;;5071273;28;20023;-81
2022/12/23 01:28:26;;;;;;;3.42;1.75;;;9.20;99.90;;;;;;5063939;28;20013;-79
2022/12/23 01:30:52;;;;;;;5.60;1.40;;;9.20;99.90;;;;;;5065906;28;20032;-79
2022/12/23 01:33:18;;;;;;;5.43;2.08;;;9.20;99.90;;;;;;5072575;28;20028;-79
2022/12/23 01:35:43;;;;;;;1.45;1.30;;;9.20;99.90;;;;;;5069021;28;20051;-79
2022/12/23 01:38:09;;;;;;;2.95;1.27;;;9.20;99.90;;;;;;5068102;28;20089;-79
2022/12/23 01:40:42;;;;;;;1.38;1.10;;;9.20;99.90;;;;;;5063664;28;20098;-80
2022/12/23 01:43:17;;;;;;;2.83;1.30;;;9.20;99.90;;;;;;5068852;28;20363;-80
2022/12/23 01:45:42;;;;;;;1.60;1.20;;;9.20;99.90;;;;;;5070753;28;20063;-80
2022/12/23 01:48:14;;;;;;;2.95;1.60;;;9.20;99.90;;;;;;5071086;28;20052;-79
2022/12/23 01:51:05;;;;;;;1.77;1.42;;;9.20;99.90;;;;;;5072057;28;20073;-79
2022/12/23 01:53:34;;;;;;;4.03;1.50;;;9.20;99.90;;;;;;5075441;28;20028;-80
2022/12/23 01:56:12;;;;;;;4.53;1.30;;;9.30;99.90;;;;;;5069740;28;20036;-79
2022/12/23 01:59:05;;;;;;;4.57;1.60;;;9.20;99.90;;;;;;5076116;28;20036;-79
2022/12/23 02:04:19;;;;;;;4.20;1.40;;;9.30;99.90;;;;;;5076185;28;21084;-78
2022/12/23 02:09:37;;;;;;;3.08;1.50;;;9.30;99.90;;;;;;5078425;28;20035;-79
2022/12/23 02:12:21;;;;;;;3.33;1.88;;;9.40;99.90;;;;;;5074913;28;20032;-80
2022/12/23 02:18:07;;;;;;;6.30;2.28;;;9.50;99.90;;;;;;5074264;28;20543;-79
2022/12/23 02:20:47;;;;;;;8.80;1.98;;;9.50;99.90;;;;;;5076515;28;20032;-80
2022/12/23 02:23:34;;;;;;;8.32;1.60;;;9.50;99.90;;;;;;5075354;28;20025;-80
2022/12/23 02:26:21;;;;;;;3.33;1.15;;;9.60;99.90;;;;;;5076438;28;20028;-79
2022/12/23 02:29:16;;;;;;;1.90;1.08;;;9.70;99.90;;;;;;5072529;28;20020;-79
2022/12/23 02:32:01;;;;;;;8.27;1.85;;;9.70;99.90;;;;;;5075237;28;20449;-80
2022/12/23 02:34:51;;;;;;;3.97;1.27;;;9.60;99.90;;;;;;5078283;28;20045;-79
2022/12/23 02:37:17;;;;;;;6.07;1.40;;;9.60;99.90;;;;;;5072088;28;21393;-79
2022/12/23 02:39:54;;;;;;;4.65;1.63;;;9.70;99.90;;;;;;5079140;28;20123;-81
2022/12/23 02:42:29;;;;;;;4.68;1.55;;;9.70;99.90;;;;;;5074193;28;20101;-80
2022/12/23 02:45:00;;;;;;;4.65;1.63;;;9.70;99.90;;;;;;5074399;28;20032;-79
2022/12/23 02:47:47;;;;;;;3.28;1.17;;;9.70;99.90;;;;;;5074587;28;20021;-79
2022/12/23 02:50:29;;;;;;;6.55;1.38;;;9.70;99.90;;;;;;5071454;28;20717;-80
2022/12/23 02:52:59;;;;;;;3.90;1.40;;;9.70;99.90;;;;;;5078520;28;20031;-80
2022/12/23 02:55:31;;;;;;;5.85;1.13;;;9.70;99.90;;;;;;5074464;28;20620;-78
2022/12/23 02:58:00;;;;;;;4.68;1.15;;;9.80;99.90;;;;;;5073202;28;20102;-79
2022/12/23 03:00:26;;;;;;;5.32;1.08;;;9.80;99.90;;;;;;5068453;28;20098;-80
2022/12/23 03:02:52;;;;;;;3.17;1.40;;;9.80;99.90;;;;;;5075432;28;21424;-79
2022/12/23 03:05:38;;;;;;;5.55;1.40;;;9.80;99.90;;;;;;5070415;28;20021;-79
2022/12/23 03:08:09;;;;;;;1.58;1.20;;;9.80;99.90;;;;;;5076554;28;20017;-79
2022/12/23 03:10:54;;;;;;;8.90;1.45;;;9.70;99.90;;;;;;5077974;28;20089;-79
2022/12/23 03:13:47;;;;;;;3.47;1.10;;;9.80;99.90;;;;;;5072541;28;20028;-79
2022/12/23 03:16:23;;;;;;;4.88;1.25;;;9.80;99.90;;;;;;5069534;28;21463;-80
2022/12/23 03:19:29;;;;;;;7.22;1.55;;;9.80;99.90;;;;;;5070125;28;20036;-81
2022/12/23 03:22:07;;;;;;;2.58;1.42;;;9.80;99.90;;;;;;5076775;28;20040;-80
2022/12/23 03:24:39;;;;;;;4.32;1.10;;;9.80;99.90;;;;;;5071510;28;20404;-79
2022/12/23 03:27:05;;;;;;;2.30;1.10;;;9.80;99.90;;;;;;5075958;28;20027;-79
2022/12/23 03:29:34;;;;;;;7.68;1.45;;;9.80;99.90;;;;;;5077144;28;20029;-79
2022/12/23 03:32:01;;;;;;;4.47;1.20;;;9.80;99.90;;;;;;5070464;28;20109;-80
2022/12/23 03:34:32;;;;;;;2.53;1.10;;;9.70;99.90;;;;;;5077585;28;20013;-79
2022/12/23 03:37:05;;;;;;;3.25;1.20;;;9.70;99.90;;;;;;5071781;28;20027;-79
2022/12/23 03:39:36;;;;;;;2.92;1.25;;;9.70;99.90;;;;;;5065203;28;20511;-79
2022/12/23 03:42:13;;;;;;;7.53;1.73;;;9.70;99.90;;;;;;5066568;28;20046;-79
2022/12/23 03:44:45;;;;;;;3.95;1.48;;;9.70;99.90;;;;;;5072214;28;20025;-79
2022/12/23 03:47:13;;;;;;;7.93;1.65;;;9.70;99.90;;;;;;5076755;28;20020;-79
2022/12/23 03:49:46;;;;;;;3.58;1.63;;;9.70;99.90;;;;;;5055424;28;20100;-79
2022/12/23 03:52:20;;;;;;;4.90;1.75;;;9.80;99.90;;;;;;5067937;28;20024;-81
2022/12/23 03:54:52;;;;;;;7.78;2.17;;;9.80;99.90;;;;;;5076772;28;20020;-79
2022/12/23 03:57:21;;;;;;;4.68;1.42;;;9.80;99.90;;;;;;5066557;28;20044;-79
2022/12/23 03:59:52;;;;;;;6.80;1.95;;;9.80;99.90;;;;;;5053107;28;20131;-79
2022/12/23 04:02:46;;;;;;;6.57;2.00;;;9.80;99.90;;;;;;5079351;28;20065;-79
2022/12/23 04:05:32;;;;;;;6.35;2.00;;;9.90;99.90;;;;;;5081112;28;20024;-79
2022/12/23 04:08:33;;;;;;;6.30;2.40;;;9.90;99.90;;;;;;5074147;28;20027;-81
2022/12/23 04:11:00;;;;;;;5.47;2.17;;;9.90;99.90;;;;;;5074133;28;20043;-78
2022/12/23 04:13:27;;;;;;;7.05;2.88;;;9.90;99.90;;;;;;5056752;28;20025;-79
2022/12/23 04:15:54;;;;;;;4.85;1.90;;;9.90;99.90;;;;;;5085313;28;20484;-79
2022/12/23 04:18:19;;;;;;;5.63;1.98;;;9.90;99.90;;;;;;5082762;28;20017;-80
2022/12/23 04:20:45;;;;;;;8.05;2.20;;;9.90;99.90;;;;;;5082983;28;20051;-79
2022/12/23 04:23:10;;;;;;;7.68;2.20;;;9.90;99.90;;;;;;5077572;28;20032;-79
2022/12/23 04:25:36;;;;;;;4.82;2.20;;;9.90;99.90;;;;;;5076889;28;20016;-80
2022/12/23 04:28:02;;;;;;;4.53;1.90;;;9.90;99.90;;;;;;5069349;28;20035;-80
2022/12/23 04:30:28;;;;;;;6.20;2.35;;;9.90;99.90;;;;;;5080221;28;20414;-81
2022/12/23 04:32:54;;;;;;;14.25;2.53;;;9.90;99.90;;;;;;5072179;28;20013;-79
2022/12/23 04:35:23;;;;;;;6.90;2.08;;;9.90;99.90;;;;;;5077429;28;20368;-79
2022/12/23 04:37:49;;;;;;;5.03;1.75;;;9.90;99.90;;;;;;5066595;28;20021;-80
2022/12/23 04:40:17;;;;;;;4.50;2.53;;;9.90;99.90;;;;;;5068155;28;20275;-78
2022/12/23 04:42:43;;;;;;;5.05;1.77;;;9.90;99.90;;;;;;5073412;28;20124;-79
2022/12/23 04:45:09;;;;;;;7.45;2.60;;;9.90;99.90;;;;;;5077694;28;20193;-80
2022/12/23 04:47:34;;;;;;;6.32;2.85;;;10.00;99.90;;;;;;5065149;28;20024;-78
2022/12/23 04:50:00;;;;;;;11.00;2.47;;;10.00;99.90;;;;;;5075415;28;20034;-79
2022/12/23 04:52:25;;;;;;;5.07;2.55;;;10.00;99.90;;;;;;5061738;28;20032;-79
2022/12/23 04:54:51;;;;;;;7.55;2.70;;;9.90;99.90;;;;;;5061053;28;20025;-79
2022/12/23 04:57:17;;;;;;;10.88;3.55;;;10.00;99.90;;;;;;5064926;28;20045;-80
2022/12/23 04:59:43;;;;;;;5.88;2.72;;;10.00;99.90;;;;;;5066992;28;20086;-79
2022/12/23 05:02:09;;;;;;;10.70;3.15;;;10.00;99.90;;;;;;5066018;28;20024;-80
2022/12/23 05:04:34;;;;;;;10.05;2.80;;;10.00;99.90;;;;;;5070706;28;20477;-80
2022/12/23 05:07:00;;;;;;;10.18;3.08;;;10.00;99.90;;;;;;5067688;28;20086;-79
2022/12/23 05:09:25;;;;;;;8.75;3.28;;;10.00;99.90;;;;;;5067678;28;20464;-79
2022/12/23 05:11:51;;;;;;;11.50;3.50;;;10.00;99.90;;;;;;5070307;28;20035;-79
2022/12/23 05:14:17;;;;;;;14.85;4.25;;;10.00;99.90;;;;;;5072405;28;20369;-80
2022/12/23 05:16:42;;;;;;;7.57;2.92;;;9.90;99.90;;;;;;5073429;28;20063;-80
2022/12/23 05:19:09;;;;;;;10.68;4.57;;;10.00;99.90;;;;;;5075449;28;20538;-80
2022/12/23 05:21:34;;;;;;;11.38;3.42;;;10.00;99.90;;;;;;5068585;28;20024;-80
2022/12/23 05:24:00;;;;;;;5.90;2.72;;;9.90;99.90;;;;;;5070887;28;20028;-79
2022/12/23 05:26:26;;;;;;;5.22;2.90;;;9.90;99.90;;;;;;5065903;28;20023;-79
2022/12/23 05:29:01;;;;;;;5.05;2.25;;;9.90;99.90;;;;;;5074911;28;20028;-79
2022/12/23 05:31:26;;;;;;;4.22;2.35;;;9.90;99.90;;;;;;5068865;28;20020;-80
2022/12/23 05:33:52;;;;;;;2.05;1.85;;;9.90;99.90;;;;;;5068143;28;20062;-79
2022/12/23 05:36:17;;;;;;;7.50;2.22;;;9.90;99.90;;;;;;5065230;28;20033;-80
2022/12/23 05:38:43;;;;;;;4.13;1.70;;;9.90;99.90;;;;;;5071169;28;20318;-80
2022/12/23 05:41:09;;;;;;;8.35;2.05;;;9.80;99.90;;;;;;5075866;28;20036;-80
2022/12/23 05:43:34;;;;;;;7.65;1.65;;;9.80;99.90;;;;;;5079742;28;20405;-79
2022/12/23 05:46:00;;;;;;;2.08;1.40;;;9.80;99.90;;;;;;5052196;28;20024;-79
2022/12/23 05:48:25;;;;;;;3.90;1.65;;;9.70;99.90;;;;;;5064797;28;20027;-79
2022/12/23 05:50:52;;;;;;;1.73;1.60;;;9.70;99.90;;;;;;5070133;28;20039;-79
2022/12/23 05:53:19;;;;;;;4.05;1.40;;;9.70;99.90;;;;;;5079071;28;20031;-80
2022/12/23 05:55:45;;;;;;;5.70;2.55;;;9.70;99.90;;;;;;5079046;28;20035;-80
2022/12/23 05:58:10;;;;;;;5.40;3.10;;;9.70;99.90;;;;;;5061551;28;20040;-79
2022/12/23 06:00:36;;;;;;;4.30;2.60;;;9.70;99.90;;;;;;5067514;28;20028;-80
2022/12/23 06:03:02;;;;;;;9.57;3.20;;;9.80;99.90;;;;;;5079021;28;20027;-82
2022/12/23 06:05:27;;;;;;;5.53;3.13;;;9.70;99.90;;;;;;5077767;28;20363;-79
2022/12/23 06:07:53;;;;;;;8.55;3.80;;;9.70;99.90;;;;;;5064915;28;20034;-80
2022/12/23 06:10:19;;;;;;;9.00;4.22;;;9.70;99.90;;;;;;5051263;28;20024;-79
2022/12/23 06:12:44;;;;;;;9.80;4.22;;;9.70;99.90;;;;;;5075215;28;20031;-79
2022/12/23 06:15:11;;;;;;;8.07;3.47;;;9.70;99.90;;;;;;5077053;28;20037;-78
2022/12/23 06:17:36;;;;;;;2.80;2.35;;;9.70;99.90;;;;;;5064042;28;20119;-80
2022/12/23 06:20:03;;;;;;;1.40;1.30;;;9.70;99.90;;;;;;5073951;28;20124;-80
2022/12/23 06:22:30;;;;;;;2.20;1.38;;;9.70;99.90;;;;;;5076316;28;20035;-81
2022/12/23 06:24:55;;;;;;;3.85;2.65;;;9.70;99.90;;;;;;5071343;28;20090;-79
2022/12/23 06:27:21;;;;;;;1.35;1.25;;;9.70;99.90;;;;;;5070302;28;20457;-80
2022/12/23 06:29:47;;;;;;;3.30;1.95;;;9.70;99.90;;;;;;5073774;28;20036;-80
2022/12/23 06:32:13;;;;;;;2.40;1.40;;;9.70;99.90;;;;;;5071912;28;20676;-79
2022/12/23 06:34:38;;;;;;;3.00;1.05;;;9.70;99.90;;;;;;5070573;28;20106;-80
2022/12/23 06:37:04;;;;;;;3.42;1.65;;;9.70;99.90;;;;;;5073796;28;20120;-79
2022/12/23 06:39:29;;;;;;;2.50;1.17;;;9.70;99.90;;;;;;5071437;28;20054;-79
2022/12/23 06:41:55;;;;;;;1.50;1.10;;;9.70;99.90;;;;;;5071140;28;20075;-79
2022/12/23 06:44:20;;;;;;;1.42;1.20;;;9.70;99.90;;;;;;5076725;28;20041;-79
2022/12/23 06:46:46;;;;;;;0.95;0.88;;;9.70;99.90;;;;;;5066442;28;20037;-79
2022/12/23 06:49:12;;;;;;;1.15;1.05;;;9.70;99.90;;;;;;5062784;28;20029;-79
2022/12/23 06:51:37;;;;;;;0.98;0.88;;;9.70;99.90;;;;;;5082219;28;20111;-80
2022/12/23 06:54:03;;;;;;;0.80;0.80;;;9.70;99.90;;;;;;5076029;28;20472;-79
2022/12/23 06:56:29;;;;;;;1.88;0.90;;;9.80;99.90;;;;;;5076416;28;20028;-80
2022/12/23 06:58:55;;;;;;;0.73;0.73;;;9.70;99.90;;;;;;5068480;28;20045;-79
2022/12/23 07:01:20;;;;;;;2.70;1.13;;;9.80;99.90;;;;;;5074200;28;20034;-79
2022/12/23 07:03:48;;;;;;;1.50;0.65;;;9.80;99.90;;;;;;5078779;28;20115;-78
2022/12/23 07:06:14;;;;;;;0.82;0.82;;;9.80;99.90;;;;;;5070929;28;20377;-79
2022/12/23 07:08:40;;;;;;;1.25;0.90;;;9.80;99.90;;;;;;5074282;28;20016;-79
2022/12/23 07:11:05;;;;;;;3.63;1.00;;;9.80;99.90;;;;;;5069507;28;20028;-79
2022/12/23 07:13:32;;;;;;;0.80;0.80;;;9.80;99.90;;;;;;5070706;28;20652;-80
2022/12/23 07:15:58;;;;;;;0.85;0.85;;;9.80;99.90;;;;;;5075725;28;20024;-80
2022/12/23 07:18:24;;;;;;;1.27;0.90;;;9.80;99.90;;;;;;5077200;28;20021;-80
2022/12/23 07:20:51;;;;;;;1.05;1.02;;;9.80;99.90;;;;;;5071907;28;20383;-80
2022/12/23 07:23:17;;;;;;;1.02;0.85;;;9.80;99.90;;;;;;5070099;28;20040;-80
2022/12/23 07:25:42;;;;;;;1.17;0.90;;;9.70;99.90;;;;;;5079539;28;20016;-81
2022/12/23 07:28:08;;;;;;;1.10;1.10;;;9.80;99.90;;;;;;5071587;28;20491;-80
2022/12/23 07:30:34;;;;;;;2.83;1.10;;;9.80;99.90;;;;;;5068132;28;20470;-80
2022/12/23 07:33:00;;;;;;;1.27;1.00;;;9.80;99.90;;;;;;5069239;28;20483;-82
2022/12/23 07:35:25;;;;;;;1.00;1.00;;;9.80;99.90;;;;;;5052747;28;20106;-80
2022/12/23 07:37:54;;;;;;;1.58;0.65;;;9.80;99.90;;;;;;5066861;28;20395;-80
2022/12/23 07:40:24;;;;;;;1.00;0.60;;;9.80;99.90;;;;;;5070061;28;20033;-80
2022/12/23 07:42:54;;;;;;;0.60;0.60;;;9.80;99.90;;;;;;5073324;28;20020;-79
2022/12/23 07:45:19;;;;;;;0.98;0.70;;;9.80;99.90;;;;;;5064942;28;20031;-81
2022/12/23 07:47:45;;;;;;;0.70;0.70;;;9.70;99.90;;;;;;5071588;28;20032;-80
2022/12/23 07:50:12;;;;;;;0.60;0.60;;;9.80;99.90;;;;;;5083989;28;20081;-81
2022/12/23 07:52:38;;;;;;;0.88;0.80;;;9.80;99.90;;;;;;5068906;28;20024;-81
2022/12/23 07:55:04;;;;;;;1.05;0.95;;;9.80;99.90;;;;;;5082372;28;20026;-80
2022/12/23 07:57:36;;;;;;;1.67;1.58;;;9.80;99.90;;;;;;5070853;28;20127;-80
2022/12/23 08:00:04;;;;;;;2.53;1.70;;;9.80;99.90;;;;;;5067666;28;20040;-81
2022/12/23 08:02:29;;;;;;;4.65;2.78;;;9.90;99.90;;;;;;5064004;28;20350;-81
2022/12/23 08:04:57;;;;;;;5.05;1.50;;;9.90;99.90;;;;;;5069206;28;20029;-81
2022/12/23 08:07:23;;;;;;;0.80;0.80;;;9.90;99.90;;;;;;5069990;28;20055;-80
2022/12/23 08:09:49;;;;;;;0.77;0.60;;;9.90;99.90;;;;;;5066456;28;20056;-80
2022/12/23 08:12:15;;;;;;;0.63;0.63;;;9.90;99.90;;;;;;5076821;28;20028;-81
2022/12/23 08:14:40;;;;;;;0.70;0.70;;;9.90;99.90;;;;;;5070138;28;20104;-80
2022/12/23 08:17:06;;;;;;;0.93;0.93;;;9.90;99.90;;;;;;5066430;28;20104;-80
2022/12/23 08:19:31;;;;;;;0.80;0.80;;;9.90;99.90;;;;;;5068428;28;20040;-79
2022/12/23 08:21:57;;;;;;;0.80;0.80;;;10.00;99.90;;;;;;5072452;28;20123;-79
2022/12/23 08:24:22;;;;;;;1.00;1.00;;;9.90;99.90;;;;;;5081228;28;20044;-79
2022/12/23 08:26:48;;;;;;;2.35;1.60;;;10.00;99.90;;;;;;5083739;28;20028;-80
2022/12/23 08:29:14;;;;;;;3.42;2.10;;;10.00;99.90;;;;;;5083435;28;20016;-81
2022/12/23 08:31:39;;;;;;;3.28;1.77;;;10.00;99.90;;;;;;5083045;28;20012;-80
2022/12/23 08:34:05;;;;;;;1.15;1.05;;;10.00;99.90;;;;;;5087521;28;20119;-80
2022/12/23 08:36:33;;;;;;;1.33;0.98;;;10.00;99.90;;;;;;5081825;28;20509;-81
2022/12/23 08:39:01;;;;;;;1.65;0.80;;;10.00;99.90;;;;;;5074612;28;20516;-80
2022/12/23 08:41:30;;;;;;;0.90;0.90;;;10.00;99.90;;;;;;5072451;28;20032;-80
2022/12/23 08:43:56;;;;;;;2.45;1.90;;;9.90;99.90;;;;;;5077136;28;20029;-80
2022/12/23 08:46:22;;;;;;;3.10;2.00;;;9.90;99.90;;;;;;5080541;28;20039;-80
2022/12/23 08:48:48;;;;;;;2.10;1.55;;;9.80;99.90;;;;;;5076380;28;20025;-81
2022/12/23 08:51:15;;;;;;;1.70;1.60;;;9.80;99.90;;;;;;5081219;28;20385;-80
2022/12/23 08:53:41;;;;;;;1.52;1.42;;;9.70;99.90;;;;;;5076301;28;20054;-81
2022/12/23 08:56:11;;;;;;;1.88;1.75;;;9.70;99.90;;;;;;5079405;28;20028;-80
2022/12/23 08:58:44;;;;;;;1.98;1.77;;;9.60;99.90;;;;;;5077063;28;20053;-80
2022/12/23 09:01:12;;;;;;;4.20;1.98;;;9.60;99.90;;;;;;5076478;28;20036;-80
2022/12/23 09:03:38;;;;;;;2.60;1.60;;;9.60;99.90;;;;;;5077461;28;20111;-80
2022/12/23 09:06:14;;;;;;;1.55;1.45;;;9.50;99.90;;;;;;5075547;28;20039;-80
2022/12/23 09:08:41;;;;;;;5.10;2.10;;;9.50;99.90;;;;;;5084124;28;20069;-80
2022/12/23 09:11:11;;;;;;;2.30;2.10;;;9.40;99.90;;;;;;5073501;28;20384;-80
2022/12/23 09:13:37;;;;;;;2.33;2.13;;;9.40;99.90;;;;;;5077087;28;20024;-79
2022/12/23 09:16:03;;;;;;;4.75;2.17;;;9.40;99.90;;;;;;5079080;28;20024;-79
2022/12/23 09:18:29;;;;;;;1.83;1.73;;;9.40;99.90;;;;;;5081629;28;20044;-79
2022/12/23 09:20:59;;;;;;;2.42;2.22;;;9.40;99.90;;;;;;5078791;28;20059;-78
2022/12/23 09:23:25;;;;;;;2.05;1.85;;;9.40;99.90;;;;;;5081340;28;20057;-79
2022/12/23 09:25:51;;;;;;;1.80;1.70;;;9.50;99.90;;;;;;5078047;28;20055;-79
2022/12/23 09:28:17;;;;;;;2.40;2.20;;;9.40;99.90;;;;;;5074913;28;20033;-79
2022/12/23 09:30:42;;;;;;;3.33;2.13;;;9.40;99.90;;;;;;5077317;28;20023;-79
2022/12/23 09:33:08;;;;;;;2.22;2.03;;;9.40;99.90;;;;;;5073009;28;20016;-79
2022/12/23 09:35:33;;;;;;;2.40;2.20;;;9.40;99.90;;;;;;5076916;28;20027;-79
2022/12/23 09:37:59;;;;;;;1.80;1.70;;;9.30;99.90;;;;;;5074846;28;20020;-80
2022/12/23 09:40:29;;;;;;;2.08;1.88;;;9.30;99.90;;;;;;5079299;28;20102;-78
2022/12/23 09:43:16;;;;;;;2.30;2.10;;;9.30;99.90;;;;;;5077848;28;20086;-79
2022/12/23 09:46:24;;;;;;;2.55;2.35;;;9.30;99.90;;;;;;5069897;28;20065;-78
2022/12/23 09:48:55;;;;;;;1.65;1.52;;;9.30;99.90;;;;;;5068521;28;20025;-78
2022/12/23 09:51:22;;;;;;;1.70;1.60;;;9.20;99.90;;;;;;5083757;28;20024;-79
2022/12/23 09:54:10;;;;;;;2.10;2.00;;;9.20;99.90;;;;;;5085901;28;20024;-78
2022/12/23 09:57:02;;;;;;;1.95;1.85;;;9.20;99.90;;;;;;5080921;28;20047;-78
2022/12/23 09:59:57;;;;;;;2.03;1.90;;;9.20;99.90;;;;;;5071798;28;20119;-79
2022/12/23 10:02:48;;;;;;;1.85;1.73;;;9.20;99.90;;;;;;5072054;28;20368;-78
2022/12/23 10:05:58;;;;;;;1.80;1.70;;;9.10;99.90;;;;;;5081842;28;20407;-79
2022/12/23 10:08:30;;;;;;;2.35;2.17;;;9.10;99.90;;;;;;5061834;28;20032;-78
2022/12/23 10:11:01;;;;;;;2.75;2.15;;;9.10;99.90;;;;;;5089109;28;20024;-78
2022/12/23 10:13:34;;;;;;;2.60;2.40;;;9.00;99.90;;;;;;5085108;28;20081;-78
2022/12/23 10:16:05;;;;;;;2.53;2.33;;;9.00;99.90;;;;;;5080570;28;20518;-78
2022/12/23 10:18:50;;;;;;;3.10;2.90;;;9.00;99.90;;;;;;5075600;28;20051;-78
2022/12/23 10:21:38;;;;;;;3.10;2.80;;;9.00;99.90;;;;;;5079230;28;20482;-79
2022/12/23 10:24:15;;;;;;;3.38;3.08;;;8.90;99.90;;;;;;5081814;28;20028;-78
2022/12/23 10:26:56;;;;;;;2.88;2.67;;;9.00;99.90;;;;;;5079902;28;20085;-78
2022/12/23 10:29:29;;;;;;;3.75;2.80;;;9.00;99.90;;;;;;5080311;28;20023;-78
2022/12/23 10:32:10;;;;;;;2.45;2.25;;;8.90;99.90;;;;;;5077873;28;20082;-78
2022/12/23 10:34:51;;;;;;;2.63;2.42;;;8.90;99.90;;;;;;5082339;28;20024;-79
2022/12/23 10:37:48;;;;;;;3.08;2.78;;;8.90;99.90;;;;;;5077091;28;20032;-79
2022/12/23 10:40:30;;;;;;;2.70;2.50;;;8.90;99.90;;;;;;5055495;28;20285;-79
2022/12/23 10:43:21;;;;;;;2.88;2.63;;;8.90;99.90;;;;;;5075469;28;20154;-79
2022/12/23 10:45:59;;;;;;;3.47;2.97;;;8.90;99.90;;;;;;5077947;28;20035;-79
2022/12/23 10:48:50;;;;;;;5.00;3.35;;;9.00;99.90;;;;;;5079602;28;21003;-79
2022/12/23 10:51:30;;;;;;;4.13;3.72;;;8.90;99.90;;;;;;5077193;28;20147;-79
2022/12/23 10:54:04;;;;;;;5.22;4.00;;;9.00;99.90;;;;;;5070035;28;20025;-79
2022/12/23 10:56:30;;;;;;;5.22;4.55;;;8.90;99.90;;;;;;5081300;28;20036;-79
2022/12/23 10:58:59;;;;;;;5.13;4.15;;;8.90;99.90;;;;;;5078140;28;20484;-79
2022/12/23 11:01:30;;;;;;;4.97;4.47;;;8.90;99.90;;;;;;5073772;28;20044;-79
2022/12/23 11:04:07;;;;;;;6.90;5.10;;;8.80;99.90;;;;;;5076208;28;20032;-79
2022/12/23 11:06:42;;;;;;;6.80;5.53;;;8.80;99.90;;;;;;5073661;28;20032;-79
2022/12/23 11:09:19;;;;;;;10.15;8.32;;;8.80;99.90;;;;;;5084489;28;20019;-78
2022/12/23 11:12:02;;;;;;;7.22;5.90;;;8.80;99.90;;;;;;5080810;28;20021;-80
2022/12/23 11:14:30;;;;;;;7.00;5.97;;;8.80;99.90;;;;;;5080312;28;20067;-80
2022/12/23 11:16:56;;;;;;;21.15;14.38;;;8.80;99.90;;;;;;5083752;28;20107;-80
2022/12/23 11:19:22;;;;;;;37.92;21.85;;;8.80;99.90;;;;;;5080877;28;20044;-80
2022/12/23 11:21:58;;;;;;;40.65;22.83;;;8.70;99.90;;;;;;5079821;28;20071;-80
2022/12/23 11:24:26;;;;;;;17.73;11.38;;;8.70;99.90;;;;;;5081079;28;20350;-79
2022/12/23 11:27:03;;;;;;;8.65;6.72;;;8.70;99.90;;;;;;5078300;28;20107;-80
2022/12/23 11:29:55;;;;;;;9.60;6.25;;;8.70;99.90;;;;;;5075960;28;20055;-80
2022/12/23 11:32:25;;;;;;;6.53;5.47;;;8.60;99.90;;;;;;5073493;28;20143;-80
2022/12/23 11:34:51;;;;;;;6.70;6.00;;;8.60;99.90;;;;;;5070276;28;20024;-80
2022/12/23 11:37:40;;;;;;;7.20;6.18;;;8.60;99.90;;;;;;5081565;28;20053;-80
2022/12/23 11:40:19;;;;;;;7.75;5.78;;;8.60;99.90;;;;;;5073136;28;20119;-80
2022/12/23 11:42:45;;;;;;;7.88;6.30;;;8.60;99.90;;;;;;5070821;28;20061;-80
2022/12/23 11:45:22;;;;;;;5.97;5.18;;;8.60;99.90;;;;;;5081268;28;20600;-79
2022/12/23 11:47:48;;;;;;;10.25;6.30;;;8.60;99.90;;;;;;5071928;28;20027;-80
2022/12/23 11:50:23;;;;;;;7.18;6.00;;;8.60;99.90;;;;;;5076409;28;20016;-80
2022/12/23 11:52:51;;;;;;;5.95;5.30;;;8.60;99.90;;;;;;5076805;28;20024;-80
2022/12/23 11:55:31;;;;;;;7.35;5.45;;;8.60;99.90;;;;;;5075790;28;20070;-80
2022/12/23 11:57:59;;;;;;;6.35;4.80;;;8.60;99.90;;;;;;5070078;28;20109;-80
2022/12/23 12:00:46;;;;;;;4.47;4.05;;;8.60;99.90;;;;;;5072503;28;20136;-79
2022/12/23 12:03:18;;;;;;;6.68;5.53;;;8.70;99.90;;;;;;5062605;28;20029;-79
2022/12/23 12:05:51;;;;;;;9.05;6.53;;;8.70;99.90;;;;;;5075653;28;20070;-80
2022/12/23 12:08:24;;;;;;;11.95;9.23;;;8.70;99.90;;;;;;5075060;28;20058;-80
2022/12/23 12:10:52;;;;;;;13.45;8.63;;;8.70;99.90;;;;;;5075909;28;20070;-80
2022/12/23 12:13:34;;;;;;;7.63;6.60;;;8.70;99.90;;;;;;5078151;28;20028;-80
2022/12/23 12:16:16;;;;;;;7.20;6.28;;;8.70;99.90;;;;;;5060051;28;20465;-80
2022/12/23 12:18:45;;;;;;;11.80;8.23;;;8.70;99.90;;;;;;5068844;28;20115;-80
2022/12/23 12:21:15;;;;;;;10.90;9.55;;;8.70;99.90;;;;;;5083497;28;20090;-80
2022/12/23 12:23:46;;;;;;;9.68;8.38;;;8.70;99.90;;;;;;5074199;28;20024;-79
2022/12/23 12:26:33;;;;;;;16.42;12.85;;;8.70;99.90;;;;;;5080090;28;20021;-80
2022/12/23 12:29:05;;;;;;;13.07;10.63;;;8.70;99.90;;;;;;5075826;28;20020;-80
2022/12/23 12:31:49;;;;;;;15.02;11.05;;;8.70;99.90;;;;;;5072308;28;20453;-80
2022/12/23 12:34:33;;;;;;;13.00;9.48;;;8.70;99.90;;;;;;5078774;28;20040;-80
2022/12/23 12:37:14;;;;;;;10.25;8.50;;;8.70;99.90;;;;;;5081913;28;20042;-80
2022/12/23 12:39:47;;;;;;;8.80;7.18;;;8.70;99.90;;;;;;5067440;28;20170;-79
2022/12/23 12:42:39;;;;;;;10.65;7.90;;;8.70;99.90;;;;;;5074039;28;20039;-80
2022/12/23 12:45:11;;;;;;;12.85;10.10;;;8.70;99.90;;;;;;5072850;28;20031;-82
2022/12/23 12:48:13;;;;;;;13.18;10.05;;;8.70;99.90;;;;;;5075699;28;20509;-80
2022/12/23 12:50:55;;;;;;;10.35;8.40;;;8.70;99.90;;;;;;5076173;28;20028;-79
2022/12/23 12:53:22;;;;;;;8.10;6.85;;;8.70;99.90;;;;;;5054600;28;20941;-80
2022/12/23 12:55:55;;;;;;;11.30;8.13;;;8.70;99.90;;;;;;5074892;28;20025;-80
2022/12/23 12:58:23;;;;;;;11.07;8.80;;;8.70;99.90;;;;;;5072546;28;20064;-80
2022/12/23 13:01:08;;;;;;;10.48;7.72;;;8.70;99.90;;;;;;5077172;28;20110;-80
2022/12/23 13:04:00;;;;;;;19.92;12.52;;;8.70;99.90;;;;;;5076456;28;20036;-80
2022/12/23 13:06:58;;;;;;;14.85;10.30;;;8.70;99.90;;;;;;5075769;28;20008;-79
2022/12/23 13:09:37;;;;;;;11.05;8.80;;;8.80;99.90;;;;;;5076623;28;20040;-80
2022/12/23 13:12:28;;;;;;;18.17;12.25;;;8.70;99.90;;;;;;5076407;28;20103;-80
2022/12/23 13:15:03;;;;;;;23.67;15.07;;;8.70;99.90;;;;;;5073825;28;20017;-80
2022/12/23 13:17:57;;;;;;;22.13;12.73;;;8.70;99.90;;;;;;5077766;28;20049;-80
2022/12/23 13:20:39;;;;;;;16.05;11.13;;;8.70;99.90;;;;;;5070257;28;20035;-80
2022/12/23 13:23:14;;;;;;;18.65;12.63;;;8.70;99.90;;;;;;5056873;28;20044;-80
2022/12/23 13:25:48;;;;;;;21.88;11.98;;;8.70;99.90;;;;;;5073612;28;20024;-79
2022/12/23 13:28:52;;;;;;;16.77;12.57;;;8.70;99.90;;;;;;5070960;28;20031;-80
2022/12/23 13:31:30;;;;;;;19.00;12.85;;;8.70;99.90;;;;;;5069448;28;20029;-79
2022/12/23 13:34:26;;;;;;;13.85;10.70;;;8.70;99.90;;;;;;5064738;28;20046;-80
2022/12/23 13:37:08;;;;;;;16.80;12.35;;;8.70;99.90;;;;;;5051069;28;20033;-80
2022/12/23 13:39:44;;;;;;;15.93;11.63;;;8.70;99.90;;;;;;5070975;28;20619;-79
2022/12/23 13:42:14;;;;;;;18.15;11.70;;;8.70;99.90;;;;;;5070647;28;20037;-78